createdAt,value
2017-12-25T00:00:03.335Z,3.70
2017-12-25T00:02:32.545Z,3.60
2017-12-25T00:05:01.823Z,3.60
2017-12-25T00:07:30.297Z,3.60
2017-12-25T00:09:58.732Z,3.70
2017-12-25T00:12:27.166Z,3.50
2017-12-25T00:14:55.619Z,3.50
2017-12-25T00:17:24.050Z,3.60
2017-12-25T00:19:53.275Z,3.60
2017-12-25T00:22:21.869Z,3.50
2017-12-25T00:24:50.299Z,3.50
2017-12-25T00:27:18.738Z,3.40
2017-12-25T00:29:47.162Z,3.40
2017-12-25T00:32:16.518Z,3.40
2017-12-25T00:34:44.950Z,3.40
2017-12-25T00:37:13.375Z,3.60
2017-12-25T00:39:41.806Z,3.60
2017-12-25T00:42:10.246Z,3.70
2017-12-25T00:44:38.750Z,3.60
2017-12-25T00:47:07.169Z,3.60
2017-12-25T00:49:36.370Z,3.50
2017-12-25T00:52:05.710Z,3.50
2017-12-25T00:54:34.167Z,3.50
2017-12-25T00:57:02.591Z,3.50
2017-12-25T00:59:31.023Z,3.50
2017-12-25T01:02:00.215Z,3.50
2017-12-25T01:04:29.491Z,3.50
2017-12-25T01:06:58.034Z,3.50
2017-12-25T01:09:26.450Z,3.50
2017-12-25T01:11:54.888Z,3.50
2017-12-25T01:14:23.314Z,3.50
2017-12-25T01:16:51.748Z,3.50
2017-12-25T01:19:20.174Z,3.40
2017-12-25T01:21:48.606Z,3.30
2017-12-25T01:24:17.030Z,3.30
2017-12-25T01:26:45.491Z,3.20
2017-12-25T01:29:13.910Z,3.20
2017-12-25T01:31:42.343Z,3.20
2017-12-25T01:34:10.778Z,3.20
2017-12-25T01:36:39.205Z,3.30
2017-12-25T01:39:07.676Z,3.20
2017-12-25T01:41:36.168Z,3.20
2017-12-25T01:44:04.608Z,3.30
2017-12-25T01:46:33.034Z,3.30
2017-12-25T01:49:01.569Z,3.30
2017-12-25T01:51:29.329Z,3.30
2017-12-25T01:53:58.866Z,3.20
2017-12-25T01:56:42.274Z,3.20
2017-12-25T01:59:10.061Z,3.20
2017-12-25T02:01:46.283Z,3.20
2017-12-25T02:04:16.544Z,3.20
2017-12-25T02:06:56.766Z,3.10
2017-12-25T02:09:25.197Z,3.10
2017-12-25T02:11:54.142Z,3.10
2017-12-25T02:14:22.598Z,3.10
2017-12-25T02:16:51.026Z,3.10
2017-12-25T02:19:19.522Z,3.10
2017-12-25T02:21:48.722Z,3.20
2017-12-25T02:24:17.909Z,3.10
2017-12-25T02:26:46.341Z,3.00
2017-12-25T02:29:14.771Z,3.10
2017-12-25T02:31:44.020Z,3.20
2017-12-25T02:34:12.606Z,3.10
2017-12-25T02:36:41.050Z,3.20
2017-12-25T02:39:10.231Z,3.20
2017-12-25T02:41:38.682Z,3.20
2017-12-25T02:44:07.091Z,3.20
2017-12-25T02:46:35.511Z,3.10
2017-12-25T02:49:04.114Z,3.20
2017-12-25T02:51:32.550Z,3.20
2017-12-25T02:54:00.992Z,3.20
2017-12-25T02:56:29.619Z,3.10
2017-12-25T02:58:58.824Z,3.10
2017-12-25T03:01:28.279Z,3.10
2017-12-25T03:03:56.708Z,3.10
2017-12-25T03:06:25.716Z,3.00
2017-12-25T03:08:54.898Z,3.00
2017-12-25T03:11:24.164Z,3.10
2017-12-25T03:13:52.421Z,3.00
2017-12-25T03:16:20.843Z,3.00
2017-12-25T03:18:49.291Z,2.90
2017-12-25T03:21:17.707Z,2.90
2017-12-25T03:23:46.922Z,3.00
2017-12-25T03:26:16.107Z,2.90
2017-12-25T03:28:44.542Z,2.80
2017-12-25T03:31:13.358Z,3.00
2017-12-25T03:33:41.794Z,3.00
2017-12-25T03:36:10.249Z,3.00
2017-12-25T03:38:38.786Z,2.90
2017-12-25T03:41:07.223Z,2.90
2017-12-25T03:43:36.604Z,2.80
2017-12-25T03:46:05.044Z,2.80
2017-12-25T03:48:33.738Z,2.90
2017-12-25T03:51:02.174Z,2.80
2017-12-25T03:53:31.390Z,3.00
2017-12-25T03:56:00.594Z,2.90
2017-12-25T03:58:29.010Z,2.90
2017-12-25T04:00:57.451Z,2.80
2017-12-25T04:03:26.644Z,2.80
2017-12-25T04:05:55.848Z,2.80
2017-12-25T04:08:25.034Z,2.80
2017-12-25T04:10:54.242Z,2.80
2017-12-25T04:13:23.426Z,2.80
2017-12-25T04:15:52.642Z,2.70
2017-12-25T04:18:21.822Z,2.80
2017-12-25T04:20:50.311Z,2.70
2017-12-25T04:23:18.766Z,2.80
2017-12-25T04:25:47.185Z,2.70
2017-12-25T04:28:15.688Z,2.70
2017-12-25T04:30:44.107Z,2.70
2017-12-25T04:33:12.543Z,2.70
2017-12-25T04:35:40.968Z,2.70
2017-12-25T04:38:09.408Z,2.70
2017-12-25T04:40:37.910Z,2.80
2017-12-25T04:43:06.352Z,2.70
2017-12-25T04:45:35.543Z,2.80
2017-12-25T04:48:03.983Z,2.80
2017-12-25T04:50:32.464Z,2.70
2017-12-25T04:53:00.899Z,2.70
2017-12-25T04:55:30.143Z,2.70
2017-12-25T04:57:58.585Z,2.70
2017-12-25T05:00:27.766Z,2.50
2017-12-25T05:02:56.213Z,2.50
2017-12-25T05:05:24.654Z,2.50
2017-12-25T05:07:53.090Z,2.50
2017-12-25T05:10:21.524Z,2.50
2017-12-25T05:12:50.004Z,2.50
2017-12-25T05:15:18.610Z,2.60
2017-12-25T05:17:47.039Z,2.60
2017-12-25T05:20:15.745Z,2.60
2017-12-25T05:22:44.934Z,2.60
2017-12-25T05:25:13.643Z,2.60
2017-12-25T05:27:42.097Z,2.50
2017-12-25T05:30:10.622Z,2.50
2017-12-25T05:32:39.058Z,2.40
2017-12-25T05:35:07.496Z,2.40
2017-12-25T05:37:36.155Z,2.40
2017-12-25T05:40:04.460Z,2.40
2017-12-25T05:42:32.902Z,2.40
2017-12-25T05:45:02.091Z,2.40
2017-12-25T05:47:31.339Z,2.30
2017-12-25T05:49:59.766Z,2.30
2017-12-25T05:52:28.208Z,2.30
2017-12-25T05:54:57.198Z,2.20
2017-12-25T05:57:25.678Z,2.30
2017-12-25T05:59:54.239Z,2.20
2017-12-25T06:02:22.945Z,2.20
2017-12-25T06:04:52.411Z,2.30
2017-12-25T06:07:21.173Z,2.30
2017-12-25T06:09:49.878Z,2.30
2017-12-25T06:12:18.751Z,2.30
2017-12-25T06:14:47.170Z,2.20
2017-12-25T06:17:16.354Z,2.30
2017-12-25T06:19:44.818Z,2.30
2017-12-25T06:22:13.526Z,2.30
2017-12-25T06:24:42.233Z,2.30
2017-12-25T06:27:10.760Z,2.30
2017-12-25T06:29:39.230Z,2.20
2017-12-25T06:32:08.689Z,2.20
2017-12-25T06:34:37.902Z,2.20
2017-12-25T06:37:06.728Z,2.20
2017-12-25T06:39:35.326Z,2.30
2017-12-25T06:42:04.057Z,2.20
2017-12-25T06:44:33.268Z,2.20
2017-12-25T06:47:02.016Z,2.10
2017-12-25T06:49:30.454Z,2.30
2017-12-25T06:51:58.915Z,2.30
2017-12-25T06:54:28.102Z,2.20
2017-12-25T06:56:57.302Z,2.10
2017-12-25T06:59:26.156Z,2.00
2017-12-25T07:01:54.682Z,2.10
2017-12-25T07:04:23.390Z,2.00
2017-12-25T07:06:51.810Z,2.00
2017-12-25T07:09:20.536Z,2.00
2017-12-25T07:11:48.967Z,1.90
2017-12-25T07:14:18.466Z,2.10
2017-12-25T07:16:46.886Z,2.00
2017-12-25T07:19:15.319Z,2.10
2017-12-25T07:21:43.778Z,2.10
2017-12-25T07:24:12.475Z,2.00
2017-12-25T07:26:41.200Z,2.00
2017-12-25T07:29:09.638Z,2.00
2017-12-25T07:31:38.364Z,2.10
2017-12-25T07:34:06.829Z,1.90
2017-12-25T07:36:35.503Z,1.80
2017-12-25T07:39:03.559Z,1.80
2017-12-25T07:41:32.818Z,1.80
2017-12-25T07:44:01.592Z,1.80
2017-12-25T07:46:31.078Z,2.00
2017-12-25T07:48:59.773Z,1.90
2017-12-25T07:51:28.486Z,2.00
2017-12-25T07:53:57.308Z,2.00
2017-12-25T07:56:26.018Z,1.90
2017-12-25T07:58:54.476Z,1.90
2017-12-25T08:01:22.955Z,1.90
2017-12-25T08:03:51.678Z,1.90
2017-12-25T08:06:20.366Z,1.90
2017-12-25T08:08:48.822Z,1.80
2017-12-25T08:11:17.250Z,1.80
2017-12-25T08:13:45.695Z,1.80
2017-12-25T08:16:14.882Z,1.90
2017-12-25T08:18:43.595Z,1.80
2017-12-25T08:21:12.292Z,1.80
2017-12-25T08:23:41.071Z,1.80
2017-12-25T08:26:09.522Z,1.90
2017-12-25T08:28:38.518Z,1.90
2017-12-25T08:31:07.220Z,1.90
2017-12-25T08:33:35.926Z,1.80
2017-12-25T08:36:04.344Z,1.90
2017-12-25T08:38:33.042Z,2.00
2017-12-25T08:41:01.753Z,1.90
2017-12-25T08:43:30.442Z,1.80
2017-12-25T08:45:59.163Z,1.70
2017-12-25T08:48:27.971Z,1.80
2017-12-25T08:50:57.447Z,1.80
2017-12-25T08:53:26.142Z,1.80
2017-12-25T08:55:54.915Z,1.70
2017-12-25T08:58:23.594Z,1.80
2017-12-25T09:00:52.794Z,1.70
2017-12-25T09:03:21.482Z,1.70
2017-12-25T09:05:50.222Z,1.80
2017-12-25T09:08:19.094Z,1.80
2017-12-25T09:10:47.511Z,1.90
2017-12-25T09:13:16.219Z,1.90
2017-12-25T09:15:44.863Z,1.80
2017-12-25T09:18:13.343Z,1.90
2017-12-25T09:20:41.769Z,1.90
2017-12-25T09:23:10.207Z,2.00
2017-12-25T09:25:39.663Z,2.20
2017-12-25T09:28:08.376Z,2.10
2017-12-25T09:30:36.939Z,2.10
2017-12-25T09:33:05.647Z,2.10
2017-12-25T09:35:34.323Z,2.30
2017-12-25T09:38:03.555Z,2.40
2017-12-25T09:40:32.242Z,2.30
2017-12-25T09:43:00.715Z,2.40
2017-12-25T09:45:29.408Z,2.40
2017-12-25T09:47:57.847Z,2.30
2017-12-25T09:50:26.398Z,2.30
2017-12-25T09:52:55.360Z,2.30
2017-12-25T09:55:24.223Z,2.10
2017-12-25T09:57:52.980Z,2.20
2017-12-25T10:00:21.427Z,2.30
2017-12-25T10:02:49.857Z,2.30
2017-12-25T10:05:18.571Z,2.50
2017-12-25T10:07:47.274Z,2.60
2017-12-25T10:10:17.009Z,2.60
2017-12-25T10:12:45.442Z,2.50
2017-12-25T10:15:13.894Z,2.50
2017-12-25T10:17:42.314Z,2.50
2017-12-25T10:20:11.059Z,2.50
2017-12-25T10:22:39.498Z,2.80
2017-12-25T10:25:08.007Z,2.80
2017-12-25T10:27:36.581Z,2.80
2017-12-25T10:30:05.044Z,3.00
2017-12-25T10:32:34.379Z,3.20
2017-12-25T10:35:02.635Z,3.20
2017-12-25T10:37:31.074Z,3.10
2017-12-25T10:40:01.151Z,3.10
2017-12-25T10:42:29.836Z,3.00
2017-12-25T10:44:59.227Z,3.10
2017-12-25T10:47:27.673Z,3.10
2017-12-25T10:49:56.102Z,3.20
2017-12-25T10:52:24.671Z,3.30
2017-12-25T10:54:53.288Z,3.30
2017-12-25T10:57:21.758Z,3.40
2017-12-25T10:59:50.228Z,3.30
2017-12-25T11:02:18.651Z,3.40
2017-12-25T11:04:47.096Z,3.30
2017-12-25T11:07:15.540Z,3.70
2017-12-25T11:09:44.822Z,3.80
2017-12-25T11:12:13.261Z,3.70
2017-12-25T11:14:41.702Z,3.90
2017-12-25T11:17:09.945Z,3.60
2017-12-25T11:19:38.392Z,3.90
2017-12-25T11:22:06.850Z,3.90
2017-12-25T11:24:36.050Z,4.00
2017-12-25T11:27:05.296Z,4.00
2017-12-25T11:29:33.771Z,3.90
2017-12-25T11:32:02.199Z,4.00
2017-12-25T11:34:30.646Z,4.00
2017-12-25T11:36:58.888Z,3.90
2017-12-25T11:39:28.094Z,4.10
2017-12-25T11:41:56.568Z,4.10
2017-12-25T11:44:25.951Z,4.30
2017-12-25T11:46:55.192Z,4.30
2017-12-25T11:49:23.618Z,4.30
2017-12-25T11:51:52.059Z,4.40
2017-12-25T11:54:20.478Z,4.40
2017-12-25T11:56:48.923Z,4.40
2017-12-25T11:59:17.399Z,4.50
2017-12-25T12:01:45.831Z,4.50
2017-12-25T12:04:14.286Z,4.80
2017-12-25T12:06:42.778Z,4.70
2017-12-25T12:09:11.290Z,4.90
2017-12-25T12:11:40.534Z,4.80
2017-12-25T12:14:08.975Z,4.70
2017-12-25T12:16:38.186Z,5.10
2017-12-25T12:19:07.388Z,5.10
2017-12-25T12:21:36.590Z,5.00
2017-12-25T12:24:05.778Z,5.10
2017-12-25T12:26:34.992Z,5.10
2017-12-25T12:29:03.423Z,5.10
2017-12-25T12:31:31.875Z,5.30
2017-12-25T12:34:00.306Z,5.40
2017-12-25T12:36:30.249Z,5.30
2017-12-25T12:38:59.459Z,5.30
2017-12-25T12:41:27.866Z,5.30
2017-12-25T12:43:56.314Z,5.30
2017-12-25T12:46:24.812Z,5.30
2017-12-25T12:48:53.238Z,5.40
2017-12-25T12:51:21.681Z,5.50
2017-12-25T12:53:50.130Z,5.40
2017-12-25T12:56:19.315Z,5.50
2017-12-25T12:58:47.746Z,5.50
2017-12-25T13:01:16.179Z,5.60
2017-12-25T13:03:44.635Z,5.60
2017-12-25T13:06:13.049Z,5.60
2017-12-25T13:08:42.256Z,5.50
2017-12-25T13:11:11.471Z,5.50
2017-12-25T13:13:39.930Z,5.40
2017-12-25T13:16:09.128Z,5.50
2017-12-25T13:18:38.332Z,5.50
2017-12-25T13:21:07.567Z,5.50
2017-12-25T13:23:36.054Z,5.50
2017-12-25T13:26:04.492Z,5.50
2017-12-25T13:28:33.799Z,5.50
2017-12-25T13:31:03.034Z,5.50
2017-12-25T13:33:31.522Z,5.50
2017-12-25T13:35:59.958Z,5.50
2017-12-25T13:38:29.166Z,5.50
2017-12-25T13:40:58.372Z,5.50
2017-12-25T13:43:26.838Z,5.40
2017-12-25T13:45:56.044Z,5.50
2017-12-25T13:48:25.300Z,5.50
2017-12-25T13:50:53.745Z,5.50
2017-12-25T13:53:22.158Z,5.50
2017-12-25T13:55:50.660Z,5.60
2017-12-25T13:58:19.076Z,5.60
2017-12-25T14:00:48.271Z,5.60
2017-12-25T14:03:17.482Z,5.60
2017-12-25T14:05:45.931Z,5.60
2017-12-25T14:08:14.365Z,5.60
2017-12-25T14:10:44.382Z,5.40
2017-12-25T14:13:12.819Z,5.30
2017-12-25T14:15:41.286Z,5.20
2017-12-25T14:18:09.711Z,5.20
2017-12-25T14:20:38.148Z,5.10
2017-12-25T14:23:06.593Z,5.20
2017-12-25T14:25:35.019Z,5.20
2017-12-25T14:28:03.479Z,5.10
2017-12-25T14:30:31.572Z,5.00
2017-12-25T14:33:00.144Z,4.80
2017-12-25T14:35:28.558Z,4.60
2017-12-25T14:37:57.780Z,4.50
2017-12-25T14:40:26.392Z,4.40
2017-12-25T14:42:55.031Z,4.50
2017-12-25T14:45:24.323Z,4.30
2017-12-25T14:47:53.716Z,4.30
2017-12-25T14:50:22.153Z,4.20
2017-12-25T14:52:50.600Z,4.10
2017-12-25T14:55:19.803Z,4.00
2017-12-25T14:57:49.015Z,3.90
2017-12-25T15:00:17.518Z,3.90
2017-12-25T15:02:45.951Z,4.00
2017-12-25T15:05:15.230Z,3.80
2017-12-25T15:07:43.683Z,3.80
2017-12-25T15:10:12.138Z,3.90
2017-12-25T15:12:40.555Z,3.80
2017-12-25T15:15:09.035Z,3.80
2017-12-25T15:17:37.467Z,3.80
2017-12-25T15:20:06.674Z,3.70
2017-12-25T15:22:35.901Z,3.60
2017-12-25T15:25:04.348Z,3.50
2017-12-25T15:27:33.562Z,3.40
2017-12-25T15:30:02.771Z,3.40
2017-12-25T15:32:31.243Z,3.40
2017-12-25T15:34:59.802Z,3.40
2017-12-25T15:37:28.223Z,3.20
2017-12-25T15:39:56.724Z,3.10
2017-12-25T15:42:25.183Z,3.20
2017-12-25T15:44:53.743Z,3.00
2017-12-25T15:47:22.943Z,2.70
2017-12-25T15:49:52.144Z,2.70
2017-12-25T15:52:21.441Z,2.60
2017-12-25T15:54:50.640Z,2.70
2017-12-25T15:57:19.878Z,2.60
2017-12-25T15:59:48.416Z,2.60
2017-12-25T16:02:16.865Z,2.60
2017-12-25T16:04:45.279Z,2.70
2017-12-25T16:07:13.870Z,2.60
2017-12-25T16:09:43.078Z,2.50
2017-12-25T16:12:11.854Z,2.40
2017-12-25T16:14:40.278Z,2.50
2017-12-25T16:17:08.752Z,2.30
2017-12-25T16:19:37.183Z,2.20
2017-12-25T16:22:05.903Z,2.20
2017-12-25T16:24:35.114Z,2.10
2017-12-25T16:27:03.726Z,2.00
2017-12-25T16:29:32.435Z,2.10
2017-12-25T16:32:01.187Z,2.20
2017-12-25T16:34:29.786Z,2.10
2017-12-25T16:37:00.458Z,2.10
2017-12-25T16:39:29.183Z,2.00
2017-12-25T16:41:57.940Z,1.80
2017-12-25T16:44:26.851Z,1.70
2017-12-25T16:46:55.568Z,1.60
2017-12-25T16:49:25.065Z,1.50
2017-12-25T16:51:53.780Z,1.50
2017-12-25T16:54:23.283Z,1.30
2017-12-25T16:56:52.174Z,1.20
2017-12-25T16:59:20.891Z,1.20
2017-12-25T17:01:49.604Z,1.20
2017-12-25T17:04:18.339Z,1.30
2017-12-25T17:06:47.042Z,1.30
2017-12-25T17:09:15.826Z,1.40
2017-12-25T17:11:44.548Z,1.50
2017-12-25T17:14:13.281Z,1.60
2017-12-25T17:16:42.767Z,1.60
2017-12-25T17:19:11.510Z,1.50
2017-12-25T17:21:40.247Z,1.70
2017-12-25T17:24:09.162Z,1.70
2017-12-25T17:26:37.882Z,1.70
2017-12-25T17:29:06.607Z,1.60
2017-12-25T17:31:36.091Z,1.60
2017-12-25T17:34:04.837Z,1.50
2017-12-25T17:36:34.363Z,1.20
2017-12-25T17:39:03.019Z,1.20
2017-12-25T17:41:32.474Z,1.20
2017-12-25T17:44:01.306Z,1.20
2017-12-25T17:46:30.059Z,1.30
2017-12-25T17:48:58.783Z,1.40
2017-12-25T17:51:28.262Z,1.40
2017-12-25T17:53:57.195Z,1.30
2017-12-25T17:56:26.188Z,1.10
2017-12-25T17:58:55.700Z,1.10
2017-12-25T18:01:25.183Z,1.10
2017-12-25T18:03:54.683Z,1.30
2017-12-25T18:06:23.423Z,1.20
2017-12-25T18:08:52.134Z,1.40
2017-12-25T18:11:20.926Z,1.40
2017-12-25T18:13:49.683Z,1.30
2017-12-25T18:16:18.602Z,1.20
2017-12-25T18:18:47.318Z,1.00
2017-12-25T18:21:16.038Z,1.00
2017-12-25T18:23:45.532Z,0.90
2017-12-25T18:26:14.266Z,0.90
2017-12-25T18:28:43.005Z,0.90
2017-12-25T18:31:11.763Z,0.90
2017-12-25T18:33:40.504Z,1.20
2017-12-25T18:36:09.434Z,1.30
2017-12-25T18:38:38.127Z,1.20
2017-12-25T18:41:06.843Z,1.00
2017-12-25T18:43:35.598Z,1.00
2017-12-25T18:46:04.320Z,0.80
2017-12-25T18:48:33.059Z,0.80
2017-12-25T18:51:01.775Z,0.90
2017-12-25T18:53:30.518Z,1.10
2017-12-25T18:55:59.233Z,1.10
2017-12-25T18:58:27.950Z,1.10
2017-12-25T19:00:56.643Z,1.10
2017-12-25T19:03:25.412Z,1.10
2017-12-25T19:05:54.135Z,1.10
2017-12-25T19:08:23.750Z,1.10
2017-12-25T19:10:53.307Z,1.30
2017-12-25T19:13:22.158Z,1.20
2017-12-25T19:15:51.646Z,1.10
2017-12-25T19:18:20.076Z,1.10
2017-12-25T19:20:48.787Z,0.90
2017-12-25T19:23:17.507Z,0.90
2017-12-25T19:25:46.995Z,1.00
2017-12-25T19:28:15.720Z,0.90
2017-12-25T19:30:45.203Z,0.70
2017-12-25T19:33:13.951Z,0.70
2017-12-25T19:35:42.690Z,0.60
2017-12-25T19:38:12.195Z,0.50
2017-12-25T19:40:40.896Z,0.40
2017-12-25T19:43:09.652Z,0.50
2017-12-25T19:45:38.352Z,0.70
2017-12-25T19:48:07.076Z,0.80
2017-12-25T19:50:35.798Z,0.80
2017-12-25T19:53:04.624Z,0.80
2017-12-25T19:55:34.134Z,0.20
2017-12-25T19:58:03.635Z,0.10
2017-12-25T20:00:33.116Z,0.00
2017-12-25T20:03:02.649Z,0.20
2017-12-25T20:05:31.378Z,0.20
2017-12-25T20:08:00.167Z,0.40
2017-12-25T20:10:28.913Z,0.40
2017-12-25T20:12:57.804Z,0.70
2017-12-25T20:15:26.539Z,0.90
2017-12-25T20:17:55.252Z,1.10
2017-12-25T20:20:23.963Z,1.10
2017-12-25T20:22:52.812Z,1.00
2017-12-25T20:25:21.524Z,0.50
2017-12-25T20:27:50.314Z,0.10
2017-12-25T20:30:19.071Z,-0.10
2017-12-25T20:32:47.799Z,-0.20
2017-12-25T20:35:16.523Z,-0.20
2017-12-25T20:37:45.998Z,-0.20
2017-12-25T20:40:14.722Z,-0.20
2017-12-25T20:42:43.890Z,0.00
2017-12-25T20:45:12.665Z,-0.10
2017-12-25T20:47:41.386Z,-0.10
2017-12-25T20:50:10.843Z,0.10
2017-12-25T20:52:39.558Z,0.00
2017-12-25T20:55:08.257Z,0.20
2017-12-25T20:57:37.173Z,0.30
2017-12-25T21:00:06.064Z,0.30
2017-12-25T21:02:34.790Z,0.40
2017-12-25T21:05:03.524Z,0.30
2017-12-25T21:07:33.075Z,-0.10
2017-12-25T21:10:01.803Z,-0.10
2017-12-25T21:12:30.527Z,-0.20
2017-12-25T21:14:59.251Z,-0.10
2017-12-25T21:17:27.951Z,-0.10
2017-12-25T21:19:56.709Z,0.00
2017-12-25T21:22:25.404Z,0.10
2017-12-25T21:24:53.954Z,0.50
2017-12-25T21:27:23.432Z,0.20
2017-12-25T21:29:52.142Z,0.20
2017-12-25T21:32:21.611Z,0.30
2017-12-25T21:34:50.439Z,0.30
2017-12-25T21:37:19.906Z,0.70
2017-12-25T21:39:48.639Z,0.70
2017-12-25T21:42:18.103Z,1.10
2017-12-25T21:44:46.822Z,1.10
2017-12-25T21:47:16.322Z,1.20
2017-12-25T21:49:45.804Z,1.50
2017-12-25T21:52:14.535Z,1.40
2017-12-25T21:54:44.088Z,2.00
2017-12-25T21:57:12.780Z,2.00
2017-12-25T21:59:41.498Z,2.00
2017-12-25T22:02:10.242Z,1.90
2017-12-25T22:04:38.952Z,-0.50
2017-12-25T22:07:07.365Z,1.40
2017-12-25T22:09:36.831Z,1.40
2017-12-25T22:12:05.551Z,1.40
2017-12-25T22:14:35.043Z,1.20
2017-12-25T22:17:03.911Z,1.20
2017-12-25T22:19:32.648Z,1.00
2017-12-25T22:22:02.215Z,0.20
2017-12-25T22:24:30.942Z,0.10
2017-12-25T22:27:00.387Z,0.00
2017-12-25T22:29:29.116Z,0.00
2017-12-25T22:31:57.806Z,0.00
2017-12-25T22:34:26.668Z,0.10
2017-12-25T22:36:55.383Z,0.30
2017-12-25T22:39:24.210Z,0.30
2017-12-25T22:41:52.992Z,0.30
2017-12-25T22:44:22.480Z,0.10
2017-12-25T22:46:51.305Z,0.00
2017-12-25T22:49:20.170Z,0.00
2017-12-25T22:51:49.639Z,-0.20
2017-12-25T22:54:18.355Z,-0.20
2017-12-25T22:56:47.148Z,0.00
2017-12-25T22:59:16.808Z,-0.20
2017-12-25T23:01:45.499Z,-0.20
2017-12-25T23:04:14.244Z,-0.20
2017-12-25T23:06:45.035Z,0.10
2017-12-25T23:09:14.142Z,0.10
2017-12-25T23:11:42.947Z,0.30
2017-12-25T23:14:11.646Z,0.30
2017-12-25T23:16:40.355Z,0.20
2017-12-25T23:19:09.820Z,0.50
2017-12-25T23:21:38.544Z,0.40
2017-12-25T23:24:07.994Z,0.20
2017-12-25T23:26:36.837Z,0.20
2017-12-25T23:29:06.315Z,0.20
2017-12-25T23:31:35.122Z,0.20
2017-12-25T23:34:04.586Z,0.20
2017-12-25T23:36:33.288Z,0.10
2017-12-25T23:39:01.987Z,0.10
2017-12-25T23:41:30.701Z,0.10
2017-12-25T23:44:00.182Z,0.20
2017-12-25T23:46:28.907Z,0.20
